createdAt,value
2018-06-29T00:06:43.277Z,74.6
2018-06-29T00:16:57.102Z,78.3
2018-06-29T00:27:11.422Z,79
2018-06-29T00:37:25.133Z,82
2018-06-29T00:47:40.536Z,83.2
2018-06-29T00:57:55.774Z,82.8
2018-06-29T01:08:09.464Z,82
2018-06-29T01:18:25.018Z,74.8
2018-06-29T01:28:40.734Z,69.4
2018-06-29T01:38:54.862Z,73.4
2018-06-29T01:49:10.708Z,76.2
2018-06-29T01:59:25.625Z,75
2018-06-29T02:09:39.540Z,75.9
2018-06-29T02:19:53.715Z,75.1
2018-06-29T02:30:08.226Z,72.6
2018-06-29T02:40:22.112Z,69.2
2018-06-29T02:50:36.387Z,70.9
2018-06-29T03:00:50.322Z,70.7
2018-06-29T03:11:04.278Z,72.4
2018-06-29T03:21:19.907Z,74.1
2018-06-29T03:31:35.102Z,75.3
2018-06-29T03:41:50.803Z,75.1
2018-06-29T03:52:06.280Z,73
2018-06-29T04:02:21.097Z,70.8
2018-06-29T04:12:34.990Z,62.9
2018-06-29T04:22:50.439Z,56.5
2018-06-29T04:33:05.037Z,60.5
2018-06-29T04:43:20.177Z,64
2018-06-29T04:53:34.977Z,68.9
2018-06-29T05:03:48.904Z,71.3
2018-06-29T05:14:04.335Z,73.6
2018-06-29T05:24:19.708Z,75.2
2018-06-29T05:34:34.746Z,76
2018-06-29T05:44:50.189Z,78.1
2018-06-29T05:55:04.942Z,78
2018-06-29T06:05:20.824Z,81.4
2018-06-29T06:15:36.308Z,93.3
2018-06-29T06:25:50.972Z,96.8
2018-06-29T06:36:06.075Z,95.2
2018-06-29T06:46:20.611Z,93.5
2018-06-29T06:56:35.866Z,90.5
2018-06-29T07:06:50.118Z,87.3
2018-06-29T07:17:05.266Z,84.1
2018-06-29T07:27:19.991Z,79.3
2018-06-29T07:37:35.386Z,77.7
2018-06-29T07:47:50.536Z,74.6
2018-06-29T07:58:04.252Z,72.7
2018-06-29T08:08:19.612Z,69.6
2018-06-29T08:18:34.746Z,68.5
2018-06-29T08:28:48.813Z,68.6
2018-06-29T08:39:03.500Z,68.2
2018-06-29T08:49:18.716Z,66.8
2018-06-29T08:59:33.632Z,65.1
2018-06-29T09:09:49.223Z,65
2018-06-29T09:20:03.242Z,64.4
2018-06-29T09:30:18.738Z,61.6
2018-06-29T09:40:32.932Z,61.8
2018-06-29T09:50:48.307Z,60.5
2018-06-29T10:01:04.145Z,61.3
2018-06-29T10:11:18.692Z,60.5
2018-06-29T10:21:33.022Z,57.8
2018-06-29T10:31:48.726Z,56.5
2018-06-29T10:42:04.485Z,55.6
2018-06-29T10:52:20.225Z,54.6
2018-06-29T11:02:34.243Z,55
2018-06-29T11:12:49.920Z,55.6
2018-06-29T11:23:05.850Z,55.4
2018-06-29T11:33:19.989Z,54.5
2018-06-29T11:43:35.616Z,54.6
2018-06-29T11:53:49.658Z,54
2018-06-29T12:04:03.769Z,53.3
2018-06-29T12:14:18.122Z,52.6
2018-06-29T12:24:33.164Z,52
2018-06-29T12:34:47.878Z,52
2018-06-29T12:45:02.535Z,51.3
2018-06-29T12:55:18.236Z,50.2
2018-06-29T13:05:34.373Z,49
2018-06-29T13:15:49.341Z,48.9
2018-06-29T13:26:04.534Z,47.8
2018-06-29T13:36:18.814Z,47
2018-06-29T13:46:33.991Z,45.4
2018-06-29T13:56:48.717Z,44.5
2018-06-29T14:07:03.405Z,44.1
2018-06-29T14:17:18.577Z,43.6
2018-06-29T14:27:33.514Z,44.1
2018-06-29T14:37:48.590Z,44.8
2018-06-29T14:48:03.396Z,44.4
2018-06-29T14:58:18.392Z,44.5
2018-06-29T15:08:33.338Z,44.5
2018-06-29T15:18:49.176Z,44.5
2018-06-29T15:29:05.153Z,45.1
2018-06-29T15:39:20.842Z,45.6
2018-06-29T15:49:35.030Z,46.8
2018-06-29T15:59:49.407Z,48.3
2018-06-29T16:10:03.831Z,49.4
2018-06-29T16:20:19.249Z,50.1
2018-06-29T16:30:34.261Z,50.9
2018-06-29T16:40:48.124Z,51.5
2018-06-29T16:51:02.955Z,53.6
2018-06-29T17:01:18.263Z,55.2
2018-06-29T17:11:32.790Z,57.6
2018-06-29T17:21:48.140Z,60.8
2018-06-29T17:32:03.862Z,63.1
2018-06-29T17:42:18.330Z,64.7
2018-06-29T17:52:32.686Z,66.1
2018-06-29T18:02:47.664Z,68.9
2018-06-29T18:13:02.239Z,71.1
2018-06-29T18:23:16.340Z,71.9
2018-06-29T18:33:31.883Z,73.7
2018-06-29T18:43:46.752Z,74.5
2018-06-29T18:54:02.015Z,76.1
2018-06-29T19:04:16.114Z,77.1
2018-06-29T19:14:29.912Z,78.6
2018-06-29T19:24:45.324Z,79.3
2018-06-29T19:35:01.026Z,80.5
2018-06-29T19:45:15.362Z,81.2
2018-06-29T19:55:29.517Z,81.8
2018-06-29T20:05:45.529Z,82.6
2018-06-29T20:15:58.822Z,82.5
2018-06-29T20:26:13.649Z,82.8
2018-06-29T20:36:27.184Z,83.8
2018-06-29T20:46:41.130Z,84.2
2018-06-29T20:56:55.165Z,84.5
2018-06-29T21:07:09.861Z,85.2
2018-06-29T21:17:25.128Z,85.7
2018-06-29T21:27:40.360Z,85
2018-06-29T21:37:54.103Z,83.2
2018-06-29T21:48:09.666Z,80.7
2018-06-29T21:58:24.431Z,77.5
2018-06-29T22:08:39.912Z,73.9
2018-06-29T22:18:55.028Z,71.2
2018-06-29T22:29:09.698Z,67.4
2018-06-29T22:39:25.222Z,62.5
2018-06-29T22:49:40.545Z,58.3
2018-06-29T22:59:55.605Z,53.4
2018-06-29T23:10:10.332Z,48
2018-06-29T23:20:24.155Z,44.3
2018-06-29T23:30:37.956Z,39.1
2018-06-29T23:40:53.160Z,34.6
2018-06-29T23:51:07.852Z,30.8
